sensor_id;sensor_type;location;lat;lon;timestamp;P1;durP1;ratioP1;P2;durP2;ratioP2
18544;SDS011;9402;51.460;7.276;2023-03-01T00:00:42;15.25;;;8.98;;
18544;SDS011;9402;51.460;7.276;2023-03-01T00:02:46;16.02;;;8.15;;
18544;SDS011;9402;51.460;7.276;2023-03-01T00:04:49;19.10;;;9.18;;
18544;SDS011;9402;51.460;7.276;2023-03-01T00:06:51;12.90;;;8.35;;
18544;SDS011;9402;51.460;7.276;2023-03-01T00:08:54;15.70;;;8.80;;
18544;SDS011;9402;51.460;7.276;2023-03-01T00:11:00;13.02;;;8.60;;
18544;SDS011;9402;51.460;7.276;2023-03-01T00:13:04;12.82;;;9.25;;
18544;SDS011;9402;51.460;7.276;2023-03-01T00:15:07;19.23;;;9.50;;
18544;SDS011;9402;51.460;7.276;2023-03-01T00:17:09;18.50;;;9.13;;
18544;SDS011;9402;51.460;7.276;2023-03-01T00:19:13;19.33;;;9.18;;
18544;SDS011;9402;51.460;7.276;2023-03-01T00:21:16;16.05;;;9.63;;
18544;SDS011;9402;51.460;7.276;2023-03-01T00:23:19;14.80;;;9.23;;
18544;SDS011;9402;51.460;7.276;2023-03-01T00:25:21;15.20;;;8.25;;
18544;SDS011;9402;51.460;7.276;2023-03-01T00:27:24;13.70;;;8.45;;
18544;SDS011;9402;51.460;7.276;2023-03-01T00:29:27;14.43;;;9.48;;
18544;SDS011;9402;51.460;7.276;2023-03-01T00:31:30;15.50;;;8.43;;
18544;SDS011;9402;51.460;7.276;2023-03-01T00:33:33;16.83;;;9.43;;
18544;SDS011;9402;51.460;7.276;2023-03-01T00:35:36;18.80;;;9.00;;
18544;SDS011;9402;51.460;7.276;2023-03-01T00:37:38;15.35;;;9.40;;
18544;SDS011;9402;51.460;7.276;2023-03-01T00:39:42;15.70;;;8.48;;
18544;SDS011;9402;51.460;7.276;2023-03-01T00:41:44;15.25;;;8.40;;
18544;SDS011;9402;51.460;7.276;2023-03-01T00:43:47;21.20;;;9.98;;
18544;SDS011;9402;51.460;7.276;2023-03-01T00:45:51;15.30;;;9.65;;
18544;SDS011;9402;51.460;7.276;2023-03-01T00:47:53;15.65;;;8.73;;
18544;SDS011;9402;51.460;7.276;2023-03-01T00:49:56;16.83;;;9.32;;
18544;SDS011;9402;51.460;7.276;2023-03-01T00:51:59;14.40;;;9.48;;
18544;SDS011;9402;51.460;7.276;2023-03-01T00:54:01;17.15;;;8.80;;
18544;SDS011;9402;51.460;7.276;2023-03-01T00:56:04;14.07;;;8.48;;
18544;SDS011;9402;51.460;7.276;2023-03-01T00:58:08;16.33;;;8.90;;
18544;SDS011;9402;51.460;7.276;2023-03-01T01:00:10;19.88;;;8.40;;
18544;SDS011;9402;51.460;7.276;2023-03-01T01:02:14;15.77;;;8.40;;
18544;SDS011;9402;51.460;7.276;2023-03-01T01:04:17;16.92;;;8.50;;
18544;SDS011;9402;51.460;7.276;2023-03-01T01:06:20;15.95;;;9.27;;
18544;SDS011;9402;51.460;7.276;2023-03-01T01:08:23;13.73;;;8.50;;
18544;SDS011;9402;51.460;7.276;2023-03-01T01:10:25;17.23;;;8.88;;
18544;SDS011;9402;51.460;7.276;2023-03-01T01:12:28;15.60;;;8.65;;
18544;SDS011;9402;51.460;7.276;2023-03-01T01:14:30;14.82;;;8.88;;
18544;SDS011;9402;51.460;7.276;2023-03-01T01:16:32;17.88;;;8.10;;
18544;SDS011;9402;51.460;7.276;2023-03-01T01:18:36;17.48;;;8.50;;
18544;SDS011;9402;51.460;7.276;2023-03-01T01:20:38;15.60;;;8.50;;
18544;SDS011;9402;51.460;7.276;2023-03-01T01:22:41;14.77;;;8.25;;
18544;SDS011;9402;51.460;7.276;2023-03-01T01:24:43;15.88;;;8.30;;
18544;SDS011;9402;51.460;7.276;2023-03-01T01:26:45;16.30;;;9.45;;
18544;SDS011;9402;51.460;7.276;2023-03-01T01:28:48;25.30;;;10.27;;
18544;SDS011;9402;51.460;7.276;2023-03-01T01:30:50;18.45;;;9.60;;
18544;SDS011;9402;51.460;7.276;2023-03-01T01:32:53;17.10;;;10.43;;
18544;SDS011;9402;51.460;7.276;2023-03-01T01:34:56;18.98;;;9.45;;
18544;SDS011;9402;51.460;7.276;2023-03-01T01:36:59;13.60;;;8.48;;
18544;SDS011;9402;51.460;7.276;2023-03-01T01:39:02;18.67;;;8.48;;
18544;SDS011;9402;51.460;7.276;2023-03-01T01:41:05;16.85;;;9.02;;
18544;SDS011;9402;51.460;7.276;2023-03-01T01:43:09;15.63;;;8.30;;
18544;SDS011;9402;51.460;7.276;2023-03-01T01:45:29;23.38;;;9.35;;
18544;SDS011;9402;51.460;7.276;2023-03-01T01:47:33;13.68;;;8.30;;
18544;SDS011;9402;51.460;7.276;2023-03-01T01:49:36;20.92;;;9.15;;
18544;SDS011;9402;51.460;7.276;2023-03-01T01:51:42;24.75;;;9.13;;
18544;SDS011;9402;51.460;7.276;2023-03-01T01:53:48;12.38;;;8.25;;
18544;SDS011;9402;51.460;7.276;2023-03-01T01:55:56;16.27;;;9.50;;
18544;SDS011;9402;51.460;7.276;2023-03-01T01:58:02;15.20;;;9.18;;
18544;SDS011;9402;51.460;7.276;2023-03-01T02:00:06;18.17;;;9.95;;
18544;SDS011;9402;51.460;7.276;2023-03-01T02:02:11;14.88;;;9.13;;
18544;SDS011;9402;51.460;7.276;2023-03-01T02:04:14;25.33;;;9.55;;
18544;SDS011;9402;51.460;7.276;2023-03-01T02:06:17;17.55;;;8.80;;
18544;SDS011;9402;51.460;7.276;2023-03-01T02:08:25;19.27;;;9.77;;
18544;SDS011;9402;51.460;7.276;2023-03-01T02:10:31;15.88;;;9.82;;
18544;SDS011;9402;51.460;7.276;2023-03-01T02:12:34;19.92;;;10.90;;
18544;SDS011;9402;51.460;7.276;2023-03-01T02:14:38;15.07;;;9.88;;
18544;SDS011;9402;51.460;7.276;2023-03-01T02:16:40;18.08;;;9.70;;
18544;SDS011;9402;51.460;7.276;2023-03-01T02:18:42;15.07;;;9.48;;
18544;SDS011;9402;51.460;7.276;2023-03-01T02:20:49;15.80;;;9.55;;
18544;SDS011;9402;51.460;7.276;2023-03-01T02:22:57;17.98;;;9.68;;
18544;SDS011;9402;51.460;7.276;2023-03-01T02:25:03;23.30;;;10.45;;
18544;SDS011;9402;51.460;7.276;2023-03-01T02:27:12;17.80;;;9.40;;
18544;SDS011;9402;51.460;7.276;2023-03-01T02:29:16;16.95;;;10.05;;
18544;SDS011;9402;51.460;7.276;2023-03-01T02:31:19;18.38;;;9.98;;
18544;SDS011;9402;51.460;7.276;2023-03-01T02:33:40;13.77;;;9.55;;
18544;SDS011;9402;51.460;7.276;2023-03-01T02:35:43;17.10;;;10.15;;
18544;SDS011;9402;51.460;7.276;2023-03-01T02:37:45;13.85;;;9.60;;
18544;SDS011;9402;51.460;7.276;2023-03-01T02:39:48;18.73;;;9.57;;
18544;SDS011;9402;51.460;7.276;2023-03-01T02:41:53;17.13;;;9.75;;
18544;SDS011;9402;51.460;7.276;2023-03-01T02:43:56;20.55;;;9.82;;
18544;SDS011;9402;51.460;7.276;2023-03-01T02:46:02;21.35;;;10.93;;
18544;SDS011;9402;51.460;7.276;2023-03-01T02:48:05;14.15;;;9.52;;
18544;SDS011;9402;51.460;7.276;2023-03-01T02:50:13;20.40;;;10.30;;
18544;SDS011;9402;51.460;7.276;2023-03-01T02:52:37;17.20;;;8.88;;
18544;SDS011;9402;51.460;7.276;2023-03-01T02:54:46;17.73;;;10.20;;
18544;SDS011;9402;51.460;7.276;2023-03-01T02:56:50;14.10;;;9.32;;
18544;SDS011;9402;51.460;7.276;2023-03-01T02:58:52;17.65;;;10.02;;
18544;SDS011;9402;51.460;7.276;2023-03-01T03:00:55;17.05;;;8.95;;
18544;SDS011;9402;51.460;7.276;2023-03-01T03:03:02;14.15;;;8.85;;
18544;SDS011;9402;51.460;7.276;2023-03-01T03:05:05;16.20;;;10.07;;
18544;SDS011;9402;51.460;7.276;2023-03-01T03:07:09;18.67;;;9.40;;
18544;SDS011;9402;51.460;7.276;2023-03-01T03:09:12;14.55;;;9.00;;
18544;SDS011;9402;51.460;7.276;2023-03-01T03:11:15;18.38;;;9.77;;
18544;SDS011;9402;51.460;7.276;2023-03-01T03:13:17;17.73;;;9.68;;
18544;SDS011;9402;51.460;7.276;2023-03-01T03:15:22;15.35;;;9.23;;
18544;SDS011;9402;51.460;7.276;2023-03-01T03:17:25;27.35;;;11.13;;
18544;SDS011;9402;51.460;7.276;2023-03-01T03:19:29;15.52;;;10.13;;
18544;SDS011;9402;51.460;7.276;2023-03-01T03:21:31;17.85;;;9.90;;
18544;SDS011;9402;51.460;7.276;2023-03-01T03:23:33;19.80;;;9.85;;
18544;SDS011;9402;51.460;7.276;2023-03-01T03:25:36;14.57;;;9.70;;
18544;SDS011;9402;51.460;7.276;2023-03-01T03:27:38;18.40;;;10.18;;
18544;SDS011;9402;51.460;7.276;2023-03-01T03:29:42;20.85;;;10.30;;
18544;SDS011;9402;51.460;7.276;2023-03-01T03:31:45;16.60;;;9.90;;
18544;SDS011;9402;51.460;7.276;2023-03-01T03:33:47;15.20;;;9.45;;
18544;SDS011;9402;51.460;7.276;2023-03-01T03:35:51;20.77;;;9.80;;
18544;SDS011;9402;51.460;7.276;2023-03-01T03:37:53;15.60;;;9.18;;
18544;SDS011;9402;51.460;7.276;2023-03-01T03:40:06;13.70;;;8.55;;
18544;SDS011;9402;51.460;7.276;2023-03-01T03:42:15;11.85;;;8.45;;
18544;SDS011;9402;51.460;7.276;2023-03-01T03:44:17;12.93;;;8.65;;
18544;SDS011;9402;51.460;7.276;2023-03-01T03:46:19;16.00;;;9.38;;
18544;SDS011;9402;51.460;7.276;2023-03-01T03:48:22;16.20;;;9.13;;
18544;SDS011;9402;51.460;7.276;2023-03-01T03:50:25;14.60;;;9.88;;
18544;SDS011;9402;51.460;7.276;2023-03-01T03:52:29;16.27;;;9.15;;
18544;SDS011;9402;51.460;7.276;2023-03-01T03:54:31;17.33;;;9.52;;
18544;SDS011;9402;51.460;7.276;2023-03-01T03:56:34;24.75;;;10.07;;
18544;SDS011;9402;51.460;7.276;2023-03-01T03:58:36;14.85;;;7.95;;
18544;SDS011;9402;51.460;7.276;2023-03-01T04:00:40;12.93;;;8.50;;
18544;SDS011;9402;51.460;7.276;2023-03-01T04:02:43;12.82;;;8.48;;
18544;SDS011;9402;51.460;7.276;2023-03-01T04:04:46;15.85;;;8.40;;
18544;SDS011;9402;51.460;7.276;2023-03-01T04:06:49;13.95;;;8.32;;
18544;SDS011;9402;51.460;7.276;2023-03-01T04:08:53;16.30;;;8.85;;
18544;SDS011;9402;51.460;7.276;2023-03-01T04:10:59;15.38;;;8.82;;
18544;SDS011;9402;51.460;7.276;2023-03-01T04:13:24;15.77;;;9.05;;
18544;SDS011;9402;51.460;7.276;2023-03-01T04:15:27;15.07;;;9.57;;
18544;SDS011;9402;51.460;7.276;2023-03-01T04:17:29;13.45;;;9.25;;
18544;SDS011;9402;51.460;7.276;2023-03-01T04:19:31;14.52;;;9.45;;
18544;SDS011;9402;51.460;7.276;2023-03-01T04:21:36;15.65;;;9.45;;
18544;SDS011;9402;51.460;7.276;2023-03-01T04:23:38;17.63;;;9.63;;
18544;SDS011;9402;51.460;7.276;2023-03-01T04:25:45;15.85;;;8.57;;
18544;SDS011;9402;51.460;7.276;2023-03-01T04:27:53;18.08;;;9.60;;
18544;SDS011;9402;51.460;7.276;2023-03-01T04:29:55;18.10;;;10.20;;
18544;SDS011;9402;51.460;7.276;2023-03-01T04:31:58;15.38;;;8.63;;
18544;SDS011;9402;51.460;7.276;2023-03-01T04:34:00;15.45;;;9.20;;
18544;SDS011;9402;51.460;7.276;2023-03-01T04:36:03;14.10;;;8.45;;
18544;SDS011;9402;51.460;7.276;2023-03-01T04:38:08;19.80;;;10.65;;
18544;SDS011;9402;51.460;7.276;2023-03-01T04:40:11;16.73;;;9.13;;
18544;SDS011;9402;51.460;7.276;2023-03-01T04:42:17;13.43;;;9.50;;
18544;SDS011;9402;51.460;7.276;2023-03-01T04:44:20;20.15;;;9.85;;
18544;SDS011;9402;51.460;7.276;2023-03-01T04:46:22;18.50;;;10.07;;
18544;SDS011;9402;51.460;7.276;2023-03-01T04:48:25;16.23;;;9.38;;
18544;SDS011;9402;51.460;7.276;2023-03-01T04:50:27;13.07;;;8.45;;
18544;SDS011;9402;51.460;7.276;2023-03-01T04:52:30;20.67;;;9.30;;
18544;SDS011;9402;51.460;7.276;2023-03-01T04:54:33;17.55;;;9.35;;
18544;SDS011;9402;51.460;7.276;2023-03-01T04:56:36;12.90;;;7.95;;
18544;SDS011;9402;51.460;7.276;2023-03-01T04:58:39;17.17;;;9.15;;
18544;SDS011;9402;51.460;7.276;2023-03-01T05:00:42;14.02;;;8.50;;
18544;SDS011;9402;51.460;7.276;2023-03-01T05:02:44;20.75;;;10.05;;
18544;SDS011;9402;51.460;7.276;2023-03-01T05:04:48;12.05;;;8.88;;
18544;SDS011;9402;51.460;7.276;2023-03-01T05:06:51;14.93;;;9.82;;
18544;SDS011;9402;51.460;7.276;2023-03-01T05:08:53;16.00;;;10.43;;
18544;SDS011;9402;51.460;7.276;2023-03-01T05:10:56;15.57;;;8.32;;
18544;SDS011;9402;51.460;7.276;2023-03-01T05:12:58;14.80;;;9.45;;
18544;SDS011;9402;51.460;7.276;2023-03-01T05:15:02;14.15;;;9.32;;
18544;SDS011;9402;51.460;7.276;2023-03-01T05:17:07;16.70;;;9.15;;
18544;SDS011;9402;51.460;7.276;2023-03-01T05:19:09;15.85;;;9.55;;
18544;SDS011;9402;51.460;7.276;2023-03-01T05:21:15;14.90;;;9.50;;
18544;SDS011;9402;51.460;7.276;2023-03-01T05:23:18;15.57;;;10.23;;
18544;SDS011;9402;51.460;7.276;2023-03-01T05:25:21;15.70;;;9.80;;
18544;SDS011;9402;51.460;7.276;2023-03-01T05:27:23;16.90;;;9.18;;
18544;SDS011;9402;51.460;7.276;2023-03-01T05:29:26;16.15;;;9.20;;
18544;SDS011;9402;51.460;7.276;2023-03-01T05:31:30;14.50;;;9.15;;
18544;SDS011;9402;51.460;7.276;2023-03-01T05:33:32;18.17;;;9.30;;
18544;SDS011;9402;51.460;7.276;2023-03-01T05:35:35;14.77;;;8.45;;
18544;SDS011;9402;51.460;7.276;2023-03-01T05:37:37;20.27;;;9.32;;
18544;SDS011;9402;51.460;7.276;2023-03-01T05:39:40;19.15;;;10.00;;
18544;SDS011;9402;51.460;7.276;2023-03-01T05:41:43;19.40;;;9.85;;
18544;SDS011;9402;51.460;7.276;2023-03-01T05:43:45;30.95;;;11.50;;
18544;SDS011;9402;51.460;7.276;2023-03-01T05:45:48;17.35;;;9.75;;
18544;SDS011;9402;51.460;7.276;2023-03-01T05:47:51;14.30;;;9.32;;
18544;SDS011;9402;51.460;7.276;2023-03-01T05:49:55;15.07;;;10.52;;
18544;SDS011;9402;51.460;7.276;2023-03-01T05:51:57;14.93;;;9.23;;
18544;SDS011;9402;51.460;7.276;2023-03-01T05:53:59;15.75;;;9.65;;
18544;SDS011;9402;51.460;7.276;2023-03-01T05:56:03;18.65;;;10.10;;
18544;SDS011;9402;51.460;7.276;2023-03-01T05:58:06;17.52;;;11.55;;
18544;SDS011;9402;51.460;7.276;2023-03-01T06:00:12;22.20;;;11.15;;
18544;SDS011;9402;51.460;7.276;2023-03-01T06:02:15;18.40;;;10.65;;
18544;SDS011;9402;51.460;7.276;2023-03-01T06:04:19;16.35;;;10.63;;
18544;SDS011;9402;51.460;7.276;2023-03-01T06:06:22;19.42;;;10.85;;
18544;SDS011;9402;51.460;7.276;2023-03-01T06:08:24;15.98;;;10.75;;
18544;SDS011;9402;51.460;7.276;2023-03-01T06:10:27;20.48;;;11.50;;
18544;SDS011;9402;51.460;7.276;2023-03-01T06:12:30;18.67;;;10.80;;
18544;SDS011;9402;51.460;7.276;2023-03-01T06:14:33;16.27;;;10.90;;
18544;SDS011;9402;51.460;7.276;2023-03-01T06:16:35;18.23;;;10.90;;
18544;SDS011;9402;51.460;7.276;2023-03-01T06:18:37;18.40;;;10.40;;
18544;SDS011;9402;51.460;7.276;2023-03-01T06:20:41;18.83;;;12.02;;
18544;SDS011;9402;51.460;7.276;2023-03-01T06:22:44;19.92;;;13.20;;
18544;SDS011;9402;51.460;7.276;2023-03-01T06:24:47;19.70;;;11.80;;
18544;SDS011;9402;51.460;7.276;2023-03-01T06:26:49;21.15;;;11.95;;
18544;SDS011;9402;51.460;7.276;2023-03-01T06:28:53;21.27;;;12.07;;
18544;SDS011;9402;51.460;7.276;2023-03-01T06:30:56;18.70;;;11.73;;
18544;SDS011;9402;51.460;7.276;2023-03-01T06:32:58;18.23;;;10.77;;
18544;SDS011;9402;51.460;7.276;2023-03-01T06:35:01;21.00;;;12.07;;
18544;SDS011;9402;51.460;7.276;2023-03-01T06:37:05;19.58;;;12.00;;
18544;SDS011;9402;51.460;7.276;2023-03-01T06:39:08;18.17;;;9.80;;
18544;SDS011;9402;51.460;7.276;2023-03-01T06:41:10;17.88;;;11.55;;
18544;SDS011;9402;51.460;7.276;2023-03-01T06:43:12;17.83;;;10.82;;
18544;SDS011;9402;51.460;7.276;2023-03-01T06:45:15;18.10;;;11.20;;
18544;SDS011;9402;51.460;7.276;2023-03-01T06:47:17;16.63;;;9.68;;
18544;SDS011;9402;51.460;7.276;2023-03-01T06:49:20;17.05;;;10.00;;
18544;SDS011;9402;51.460;7.276;2023-03-01T06:51:22;18.60;;;9.73;;
18544;SDS011;9402;51.460;7.276;2023-03-01T06:53:26;14.65;;;8.90;;
18544;SDS011;9402;51.460;7.276;2023-03-01T06:55:29;19.58;;;11.15;;
18544;SDS011;9402;51.460;7.276;2023-03-01T06:57:32;18.00;;;10.75;;
18544;SDS011;9402;51.460;7.276;2023-03-01T06:59:34;26.42;;;12.10;;
18544;SDS011;9402;51.460;7.276;2023-03-01T07:01:36;18.80;;;10.82;;
18544;SDS011;9402;51.460;7.276;2023-03-01T07:03:39;17.75;;;10.38;;
18544;SDS011;9402;51.460;7.276;2023-03-01T07:05:44;18.42;;;10.70;;
18544;SDS011;9402;51.460;7.276;2023-03-01T07:07:46;18.73;;;10.85;;
18544;SDS011;9402;51.460;7.276;2023-03-01T07:09:50;18.20;;;10.70;;
18544;SDS011;9402;51.460;7.276;2023-03-01T07:11:53;16.95;;;11.45;;
18544;SDS011;9402;51.460;7.276;2023-03-01T07:13:55;19.20;;;11.07;;
18544;SDS011;9402;51.460;7.276;2023-03-01T07:15:58;22.30;;;12.02;;
18544;SDS011;9402;51.460;7.276;2023-03-01T07:18:00;20.15;;;13.05;;
18544;SDS011;9402;51.460;7.276;2023-03-01T07:20:03;18.02;;;11.10;;
18544;SDS011;9402;51.460;7.276;2023-03-01T07:22:06;19.67;;;10.65;;
18544;SDS011;9402;51.460;7.276;2023-03-01T07:24:09;17.50;;;11.07;;
18544;SDS011;9402;51.460;7.276;2023-03-01T07:26:13;19.75;;;11.45;;
18544;SDS011;9402;51.460;7.276;2023-03-01T07:28:15;24.98;;;12.98;;
18544;SDS011;9402;51.460;7.276;2023-03-01T07:30:17;24.77;;;11.65;;
18544;SDS011;9402;51.460;7.276;2023-03-01T07:32:20;22.58;;;13.55;;
18544;SDS011;9402;51.460;7.276;2023-03-01T07:34:22;20.05;;;11.65;;
18544;SDS011;9402;51.460;7.276;2023-03-01T07:36:25;21.75;;;12.23;;
18544;SDS011;9402;51.460;7.276;2023-03-01T07:38:27;17.77;;;12.40;;
18544;SDS011;9402;51.460;7.276;2023-03-01T07:40:30;22.55;;;11.18;;
18544;SDS011;9402;51.460;7.276;2023-03-01T07:42:35;21.45;;;12.15;;
18544;SDS011;9402;51.460;7.276;2023-03-01T07:44:37;23.70;;;12.00;;
18544;SDS011;9402;51.460;7.276;2023-03-01T07:46:40;23.35;;;13.57;;
18544;SDS011;9402;51.460;7.276;2023-03-01T07:48:42;18.25;;;12.25;;
18544;SDS011;9402;51.460;7.276;2023-03-01T07:50:44;23.42;;;13.00;;
18544;SDS011;9402;51.460;7.276;2023-03-01T07:52:47;29.73;;;13.93;;
18544;SDS011;9402;51.460;7.276;2023-03-01T07:54:50;23.33;;;13.10;;
18544;SDS011;9402;51.460;7.276;2023-03-01T07:56:52;27.90;;;12.50;;
18544;SDS011;9402;51.460;7.276;2023-03-01T07:58:58;17.80;;;11.80;;
18544;SDS011;9402;51.460;7.276;2023-03-01T08:01:01;23.30;;;12.10;;
18544;SDS011;9402;51.460;7.276;2023-03-01T08:03:04;25.13;;;13.82;;
18544;SDS011;9402;51.460;7.276;2023-03-01T08:05:06;20.67;;;12.93;;
18544;SDS011;9402;51.460;7.276;2023-03-01T08:07:09;22.27;;;12.57;;
18544;SDS011;9402;51.460;7.276;2023-03-01T08:09:11;17.00;;;11.30;;
18544;SDS011;9402;51.460;7.276;2023-03-01T08:11:14;14.82;;;10.98;;
18544;SDS011;9402;51.460;7.276;2023-03-01T08:13:16;16.70;;;10.57;;
18544;SDS011;9402;51.460;7.276;2023-03-01T08:15:23;18.35;;;11.73;;
18544;SDS011;9402;51.460;7.276;2023-03-01T08:17:26;24.52;;;13.90;;
18544;SDS011;9402;51.460;7.276;2023-03-01T08:19:28;23.83;;;13.23;;
18544;SDS011;9402;51.460;7.276;2023-03-01T08:21:30;26.00;;;12.73;;
18544;SDS011;9402;51.460;7.276;2023-03-01T08:23:34;19.20;;;12.90;;
18544;SDS011;9402;51.460;7.276;2023-03-01T08:25:37;17.90;;;11.93;;
18544;SDS011;9402;51.460;7.276;2023-03-01T08:27:40;21.80;;;12.80;;
18544;SDS011;9402;51.460;7.276;2023-03-01T08:29:42;31.77;;;12.82;;
18544;SDS011;9402;51.460;7.276;2023-03-01T08:31:46;28.88;;;12.30;;
18544;SDS011;9402;51.460;7.276;2023-03-01T08:33:50;21.48;;;12.88;;
18544;SDS011;9402;51.460;7.276;2023-03-01T08:36:02;24.63;;;12.75;;
18544;SDS011;9402;51.460;7.276;2023-03-01T08:38:06;20.35;;;11.88;;
18544;SDS011;9402;51.460;7.276;2023-03-01T08:40:09;25.42;;;12.80;;
18544;SDS011;9402;51.460;7.276;2023-03-01T08:42:13;21.88;;;12.35;;
18544;SDS011;9402;51.460;7.276;2023-03-01T08:44:16;19.48;;;11.30;;
18544;SDS011;9402;51.460;7.276;2023-03-01T08:46:18;24.95;;;12.93;;
18544;SDS011;9402;51.460;7.276;2023-03-01T08:48:22;23.05;;;12.07;;
18544;SDS011;9402;51.460;7.276;2023-03-01T08:50:24;20.40;;;12.48;;
18544;SDS011;9402;51.460;7.276;2023-03-01T08:52:26;23.33;;;12.55;;
18544;SDS011;9402;51.460;7.276;2023-03-01T08:54:30;23.85;;;12.43;;
18544;SDS011;9402;51.460;7.276;2023-03-01T08:56:32;21.02;;;11.30;;
18544;SDS011;9402;51.460;7.276;2023-03-01T08:58:35;23.50;;;12.70;;
18544;SDS011;9402;51.460;7.276;2023-03-01T09:00:37;19.90;;;11.93;;
18544;SDS011;9402;51.460;7.276;2023-03-01T09:02:40;17.08;;;12.07;;
18544;SDS011;9402;51.460;7.276;2023-03-01T09:04:44;18.83;;;10.82;;
18544;SDS011;9402;51.460;7.276;2023-03-01T09:06:46;15.38;;;10.20;;
18544;SDS011;9402;51.460;7.276;2023-03-01T09:08:50;16.80;;;9.85;;
18544;SDS011;9402;51.460;7.276;2023-03-01T09:10:52;20.88;;;10.85;;
18544;SDS011;9402;51.460;7.276;2023-03-01T09:12:55;19.25;;;9.15;;
18544;SDS011;9402;51.460;7.276;2023-03-01T09:14:57;16.63;;;10.02;;
18544;SDS011;9402;51.460;7.276;2023-03-01T09:16:59;12.52;;;8.82;;
18544;SDS011;9402;51.460;7.276;2023-03-01T09:19:03;15.05;;;8.45;;
18544;SDS011;9402;51.460;7.276;2023-03-01T09:21:08;17.63;;;8.60;;
18544;SDS011;9402;51.460;7.276;2023-03-01T09:23:11;11.68;;;8.07;;
18544;SDS011;9402;51.460;7.276;2023-03-01T09:25:13;16.17;;;7.90;;
18544;SDS011;9402;51.460;7.276;2023-03-01T09:27:16;15.95;;;8.10;;
18544;SDS011;9402;51.460;7.276;2023-03-01T09:29:18;16.55;;;8.20;;
18544;SDS011;9402;51.460;7.276;2023-03-01T09:31:21;13.98;;;7.72;;
18544;SDS011;9402;51.460;7.276;2023-03-01T09:33:24;11.65;;;7.00;;
18544;SDS011;9402;51.460;7.276;2023-03-01T09:35:27;13.57;;;7.80;;
18544;SDS011;9402;51.460;7.276;2023-03-01T09:37:31;14.55;;;7.40;;
18544;SDS011;9402;51.460;7.276;2023-03-01T09:39:33;20.65;;;7.28;;
18544;SDS011;9402;51.460;7.276;2023-03-01T09:44:00;12.07;;;7.18;;
18544;SDS011;9402;51.460;7.276;2023-03-01T09:46:08;12.85;;;7.57;;
18544;SDS011;9402;51.460;7.276;2023-03-01T09:48:12;14.70;;;7.95;;
18544;SDS011;9402;51.460;7.276;2023-03-01T09:50:18;12.27;;;7.63;;
18544;SDS011;9402;51.460;7.276;2023-03-01T09:52:23;12.27;;;7.43;;
18544;SDS011;9402;51.460;7.276;2023-03-01T09:54:31;16.08;;;7.82;;
18544;SDS011;9402;51.460;7.276;2023-03-01T09:56:34;13.73;;;7.70;;
18544;SDS011;9402;51.460;7.276;2023-03-01T09:58:41;14.32;;;7.30;;
18544;SDS011;9402;51.460;7.276;2023-03-01T10:00:52;12.18;;;6.75;;
18544;SDS011;9402;51.460;7.276;2023-03-01T10:02:56;14.45;;;7.47;;
18544;SDS011;9402;51.460;7.276;2023-03-01T10:05:05;16.05;;;6.90;;
18544;SDS011;9402;51.460;7.276;2023-03-01T10:07:19;13.82;;;7.47;;
18544;SDS011;9402;51.460;7.276;2023-03-01T10:09:28;14.88;;;7.93;;
18544;SDS011;9402;51.460;7.276;2023-03-01T10:11:35;11.15;;;5.90;;
18544;SDS011;9402;51.460;7.276;2023-03-01T10:13:43;10.93;;;6.60;;
18544;SDS011;9402;51.460;7.276;2023-03-01T10:15:50;10.88;;;6.90;;
18544;SDS011;9402;51.460;7.276;2023-03-01T10:17:55;13.95;;;7.55;;
18544;SDS011;9402;51.460;7.276;2023-03-01T10:20:10;13.10;;;6.38;;
18544;SDS011;9402;51.460;7.276;2023-03-01T10:22:21;13.75;;;7.13;;
18544;SDS011;9402;51.460;7.276;2023-03-01T10:24:28;13.82;;;6.40;;
18544;SDS011;9402;51.460;7.276;2023-03-01T10:26:41;12.13;;;7.25;;
18544;SDS011;9402;51.460;7.276;2023-03-01T10:28:51;11.18;;;6.65;;
18544;SDS011;9402;51.460;7.276;2023-03-01T10:30:59;16.67;;;7.70;;
18544;SDS011;9402;51.460;7.276;2023-03-01T10:33:02;13.73;;;6.53;;
18544;SDS011;9402;51.460;7.276;2023-03-01T10:35:15;12.20;;;6.55;;
18544;SDS011;9402;51.460;7.276;2023-03-01T10:37:19;12.02;;;6.90;;
18544;SDS011;9402;51.460;7.276;2023-03-01T10:39:25;13.00;;;6.50;;
18544;SDS011;9402;51.460;7.276;2023-03-01T10:41:29;12.27;;;6.85;;
18544;SDS011;9402;51.460;7.276;2023-03-01T10:43:32;10.85;;;6.88;;
18544;SDS011;9402;51.460;7.276;2023-03-01T10:45:44;9.48;;;6.55;;
18544;SDS011;9402;51.460;7.276;2023-03-01T10:47:47;13.98;;;7.10;;
18544;SDS011;9402;51.460;7.276;2023-03-01T10:50:17;13.65;;;6.90;;
18544;SDS011;9402;51.460;7.276;2023-03-01T10:52:21;21.67;;;6.45;;
18544;SDS011;9402;51.460;7.276;2023-03-01T10:54:27;10.40;;;6.97;;
18544;SDS011;9402;51.460;7.276;2023-03-01T10:56:33;10.95;;;6.88;;
18544;SDS011;9402;51.460;7.276;2023-03-01T10:58:57;21.08;;;6.95;;
18544;SDS011;9402;51.460;7.276;2023-03-01T11:01:00;12.35;;;6.63;;
18544;SDS011;9402;51.460;7.276;2023-03-01T11:03:10;16.10;;;7.65;;
18544;SDS011;9402;51.460;7.276;2023-03-01T11:05:16;10.55;;;6.88;;
18544;SDS011;9402;51.460;7.276;2023-03-01T11:07:25;11.25;;;7.65;;
18544;SDS011;9402;51.460;7.276;2023-03-01T11:09:30;10.45;;;6.80;;
18544;SDS011;9402;51.460;7.276;2023-03-01T11:11:39;13.70;;;7.55;;
18544;SDS011;9402;51.460;7.276;2023-03-01T11:13:47;15.65;;;7.68;;
18544;SDS011;9402;51.460;7.276;2023-03-01T11:16:01;15.18;;;7.10;;
18544;SDS011;9402;51.460;7.276;2023-03-01T11:18:05;12.20;;;6.95;;
18544;SDS011;9402;51.460;7.276;2023-03-01T11:20:29;13.95;;;8.13;;
18544;SDS011;9402;51.460;7.276;2023-03-01T11:22:33;10.90;;;6.72;;
18544;SDS011;9402;51.460;7.276;2023-03-01T11:24:38;20.50;;;7.68;;
18544;SDS011;9402;51.460;7.276;2023-03-01T11:26:44;12.48;;;7.68;;
18544;SDS011;9402;51.460;7.276;2023-03-01T11:28:49;13.52;;;6.93;;
18544;SDS011;9402;51.460;7.276;2023-03-01T11:30:53;11.00;;;6.93;;
18544;SDS011;9402;51.460;7.276;2023-03-01T11:33:04;12.38;;;7.30;;
18544;SDS011;9402;51.460;7.276;2023-03-01T11:35:14;12.52;;;7.15;;
18544;SDS011;9402;51.460;7.276;2023-03-01T11:37:26;10.85;;;6.40;;
18544;SDS011;9402;51.460;7.276;2023-03-01T11:39:36;14.63;;;7.53;;
18544;SDS011;9402;51.460;7.276;2023-03-01T11:41:40;18.90;;;7.95;;
18544;SDS011;9402;51.460;7.276;2023-03-01T11:43:47;13.05;;;7.50;;
18544;SDS011;9402;51.460;7.276;2023-03-01T11:46:00;11.23;;;7.03;;
18544;SDS011;9402;51.460;7.276;2023-03-01T11:48:22;15.50;;;7.95;;
18544;SDS011;9402;51.460;7.276;2023-03-01T11:50:34;16.55;;;8.60;;
18544;SDS011;9402;51.460;7.276;2023-03-01T11:52:42;10.25;;;7.03;;
18544;SDS011;9402;51.460;7.276;2023-03-01T11:54:54;15.55;;;7.68;;
18544;SDS011;9402;51.460;7.276;2023-03-01T11:57:07;12.32;;;6.60;;
18544;SDS011;9402;51.460;7.276;2023-03-01T11:59:21;11.15;;;7.50;;
18544;SDS011;9402;51.460;7.276;2023-03-01T12:01:42;16.65;;;9.10;;
18544;SDS011;9402;51.460;7.276;2023-03-01T12:04:02;12.98;;;7.90;;
18544;SDS011;9402;51.460;7.276;2023-03-01T12:06:50;13.95;;;7.40;;
18544;SDS011;9402;51.460;7.276;2023-03-01T12:09:00;13.10;;;7.38;;
18544;SDS011;9402;51.460;7.276;2023-03-01T12:11:12;13.38;;;7.53;;
18544;SDS011;9402;51.460;7.276;2023-03-01T12:13:32;12.52;;;7.18;;
18544;SDS011;9402;51.460;7.276;2023-03-01T12:15:51;12.85;;;8.30;;
18544;SDS011;9402;51.460;7.276;2023-03-01T12:20:47;13.65;;;8.13;;
18544;SDS011;9402;51.460;7.276;2023-03-01T12:22:57;19.45;;;7.82;;
18544;SDS011;9402;51.460;7.276;2023-03-01T12:25:15;16.98;;;7.72;;
18544;SDS011;9402;51.460;7.276;2023-03-01T12:27:28;14.07;;;7.20;;
18544;SDS011;9402;51.460;7.276;2023-03-01T12:29:43;15.48;;;7.63;;
18544;SDS011;9402;51.460;7.276;2023-03-01T12:32:11;14.32;;;7.40;;
18544;SDS011;9402;51.460;7.276;2023-03-01T12:34:25;13.52;;;7.70;;